sensor_id;sensor_type;location;lat;lon;timestamp;temperature;humidity
38938;DHT22;24727;51.974;20.868;2024-01-06T00:01:41;0.10;1.00
38938;DHT22;24727;51.974;20.868;2024-01-06T00:04:07;0.00;1.00
38938;DHT22;24727;51.974;20.868;2024-01-06T00:06:33;0.20;1.00
38938;DHT22;24727;51.974;20.868;2024-01-06T00:08:59;0.30;1.00
38938;DHT22;24727;51.974;20.868;2024-01-06T00:11:24;0.20;1.00
38938;DHT22;24727;51.974;20.868;2024-01-06T00:13:50;0.30;1.00
38938;DHT22;24727;51.974;20.868;2024-01-06T00:16:20;0.30;1.00
38938;DHT22;24727;51.974;20.868;2024-01-06T00:18:46;0.20;1.00
38938;DHT22;24727;51.974;20.868;2024-01-06T00:21:13;0.30;1.00
38938;DHT22;24727;51.974;20.868;2024-01-06T00:23:40;0.40;1.00
38938;DHT22;24727;51.974;20.868;2024-01-06T00:26:07;0.50;1.00
38938;DHT22;24727;51.974;20.868;2024-01-06T00:28:34;0.40;1.00
38938;DHT22;24727;51.974;20.868;2024-01-06T00:30:59;0.20;1.00
38938;DHT22;24727;51.974;20.868;2024-01-06T00:33:25;0.20;1.00
38938;DHT22;24727;51.974;20.868;2024-01-06T00:35:51;0.00;1.00
38938;DHT22;24727;51.974;20.868;2024-01-06T00:38:17;0.00;1.00
38938;DHT22;24727;51.974;20.868;2024-01-06T00:40:43;0.00;1.00
38938;DHT22;24727;51.974;20.868;2024-01-06T00:43:09;0.20;1.00
38938;DHT22;24727;51.974;20.868;2024-01-06T00:45:35;0.20;1.00
38938;DHT22;24727;51.974;20.868;2024-01-06T00:48:00;0.20;1.00
38938;DHT22;24727;51.974;20.868;2024-01-06T00:50:26;0.40;1.00
38938;DHT22;24727;51.974;20.868;2024-01-06T00:52:52;0.20;1.00
38938;DHT22;24727;51.974;20.868;2024-01-06T00:55:21;0.00;1.00
38938;DHT22;24727;51.974;20.868;2024-01-06T00:57:47;-0.10;1.00
38938;DHT22;24727;51.974;20.868;2024-01-06T01:00:13;-0.20;1.00
38938;DHT22;24727;51.974;20.868;2024-01-06T01:02:39;-0.10;1.00
38938;DHT22;24727;51.974;20.868;2024-01-06T01:05:05;0.00;1.00
38938;DHT22;24727;51.974;20.868;2024-01-06T01:07:34;-0.10;1.00
38938;DHT22;24727;51.974;20.868;2024-01-06T01:10:00;-0.20;1.00
38938;DHT22;24727;51.974;20.868;2024-01-06T01:12:26;-0.10;1.00
38938;DHT22;24727;51.974;20.868;2024-01-06T01:14:53;-0.40;1.00
38938;DHT22;24727;51.974;20.868;2024-01-06T01:17:19;-0.40;1.00
38938;DHT22;24727;51.974;20.868;2024-01-06T01:19:45;-0.40;1.00
38938;DHT22;24727;51.974;20.868;2024-01-06T01:22:11;-0.40;1.00
38938;DHT22;24727;51.974;20.868;2024-01-06T01:24:37;-0.40;1.00
38938;DHT22;24727;51.974;20.868;2024-01-06T01:27:03;-0.50;1.00
38938;DHT22;24727;51.974;20.868;2024-01-06T01:29:29;-0.30;1.00
38938;DHT22;24727;51.974;20.868;2024-01-06T01:31:55;-0.10;1.00
38938;DHT22;24727;51.974;20.868;2024-01-06T01:34:21;-0.10;1.00
38938;DHT22;24727;51.974;20.868;2024-01-06T01:36:47;0.00;1.00
38938;DHT22;24727;51.974;20.868;2024-01-06T01:39:12;0.00;1.00
38938;DHT22;24727;51.974;20.868;2024-01-06T01:41:39;-0.20;1.00
38938;DHT22;24727;51.974;20.868;2024-01-06T01:44:05;-0.10;1.00
38938;DHT22;24727;51.974;20.868;2024-01-06T01:46:31;-0.20;1.00
38938;DHT22;24727;51.974;20.868;2024-01-06T01:48:58;-0.30;1.00
38938;DHT22;24727;51.974;20.868;2024-01-06T01:51:28;-0.50;1.00
38938;DHT22;24727;51.974;20.868;2024-01-06T01:53:56;-0.50;1.00
38938;DHT22;24727;51.974;20.868;2024-01-06T01:56:24;-0.60;1.00
38938;DHT22;24727;51.974;20.868;2024-01-06T01:58:50;-0.40;1.00
38938;DHT22;24727;51.974;20.868;2024-01-06T02:01:16;-0.40;1.00
38938;DHT22;24727;51.974;20.868;2024-01-06T02:03:43;-0.40;1.00
38938;DHT22;24727;51.974;20.868;2024-01-06T02:06:12;-0.50;1.00
38938;DHT22;24727;51.974;20.868;2024-01-06T02:08:38;-0.40;1.00
38938;DHT22;24727;51.974;20.868;2024-01-06T02:11:04;-0.60;1.00
38938;DHT22;24727;51.974;20.868;2024-01-06T02:13:35;-0.50;1.00
38938;DHT22;24727;51.974;20.868;2024-01-06T02:16:03;-0.60;1.00
38938;DHT22;24727;51.974;20.868;2024-01-06T02:18:30;-0.70;1.00
38938;DHT22;24727;51.974;20.868;2024-01-06T02:21:00;-0.60;1.00
38938;DHT22;24727;51.974;20.868;2024-01-06T02:23:27;-0.50;1.00
38938;DHT22;24727;51.974;20.868;2024-01-06T02:25:53;-0.30;1.00
38938;DHT22;24727;51.974;20.868;2024-01-06T02:28:19;-0.40;1.00
38938;DHT22;24727;51.974;20.868;2024-01-06T02:30:45;-0.60;1.00
38938;DHT22;24727;51.974;20.868;2024-01-06T02:33:11;-0.50;1.00
38938;DHT22;24727;51.974;20.868;2024-01-06T02:35:37;-0.30;1.00
38938;DHT22;24727;51.974;20.868;2024-01-06T02:38:03;-0.20;1.00
38938;DHT22;24727;51.974;20.868;2024-01-06T02:40:29;-0.30;1.00
38938;DHT22;24727;51.974;20.868;2024-01-06T02:42:55;-0.40;1.00
38938;DHT22;24727;51.974;20.868;2024-01-06T02:45:20;-0.20;1.00
38938;DHT22;24727;51.974;20.868;2024-01-06T02:47:46;-0.30;1.00
38938;DHT22;24727;51.974;20.868;2024-01-06T02:50:12;-0.40;1.00
38938;DHT22;24727;51.974;20.868;2024-01-06T02:52:38;-0.30;1.00
38938;DHT22;24727;51.974;20.868;2024-01-06T02:55:04;-0.40;1.00
38938;DHT22;24727;51.974;20.868;2024-01-06T02:57:30;-0.30;1.00
38938;DHT22;24727;51.974;20.868;2024-01-06T02:59:56;-0.20;1.00
38938;DHT22;24727;51.974;20.868;2024-01-06T03:02:23;-0.20;1.00
38938;DHT22;24727;51.974;20.868;2024-01-06T03:04:49;-0.30;1.00
38938;DHT22;24727;51.974;20.868;2024-01-06T03:07:14;-0.30;1.00
38938;DHT22;24727;51.974;20.868;2024-01-06T03:09:40;-0.10;1.00
38938;DHT22;24727;51.974;20.868;2024-01-06T03:12:07;-0.20;1.00
38938;DHT22;24727;51.974;20.868;2024-01-06T03:14:35;-0.40;1.00
38938;DHT22;24727;51.974;20.868;2024-01-06T03:17:01;-0.40;1.00
38938;DHT22;24727;51.974;20.868;2024-01-06T03:19:27;-0.30;1.00
38938;DHT22;24727;51.974;20.868;2024-01-06T03:21:53;-0.30;1.00
38938;DHT22;24727;51.974;20.868;2024-01-06T03:24:20;-0.10;1.00
38938;DHT22;24727;51.974;20.868;2024-01-06T03:26:46;-0.10;1.00
38938;DHT22;24727;51.974;20.868;2024-01-06T03:29:12;0.10;1.00
38938;DHT22;24727;51.974;20.868;2024-01-06T03:31:41;0.10;1.00
38938;DHT22;24727;51.974;20.868;2024-01-06T03:34:07;0.10;1.00
38938;DHT22;24727;51.974;20.868;2024-01-06T03:36:34;-0.10;1.00
38938;DHT22;24727;51.974;20.868;2024-01-06T03:38:59;-0.30;1.00
38938;DHT22;24727;51.974;20.868;2024-01-06T03:41:25;-0.40;1.00
38938;DHT22;24727;51.974;20.868;2024-01-06T03:43:51;-0.30;1.00
38938;DHT22;24727;51.974;20.868;2024-01-06T03:46:17;-0.60;1.00
38938;DHT22;24727;51.974;20.868;2024-01-06T03:48:43;-0.60;1.00
38938;DHT22;24727;51.974;20.868;2024-01-06T03:51:12;-0.50;1.00
38938;DHT22;24727;51.974;20.868;2024-01-06T03:53:38;-0.40;1.00
38938;DHT22;24727;51.974;20.868;2024-01-06T03:56:04;-0.50;1.00
38938;DHT22;24727;51.974;20.868;2024-01-06T03:58:30;-0.50;1.00
38938;DHT22;24727;51.974;20.868;2024-01-06T04:00:56;-0.40;1.00
38938;DHT22;24727;51.974;20.868;2024-01-06T04:03:21;-0.20;1.00
38938;DHT22;24727;51.974;20.868;2024-01-06T04:05:47;-0.50;1.00
38938;DHT22;24727;51.974;20.868;2024-01-06T04:08:13;-0.60;1.00
38938;DHT22;24727;51.974;20.868;2024-01-06T04:10:39;-0.50;1.00
38938;DHT22;24727;51.974;20.868;2024-01-06T04:13:07;-0.40;1.00
38938;DHT22;24727;51.974;20.868;2024-01-06T04:15:33;-0.50;1.00
38938;DHT22;24727;51.974;20.868;2024-01-06T04:18:02;-0.60;1.00
38938;DHT22;24727;51.974;20.868;2024-01-06T04:20:29;-0.70;1.00
38938;DHT22;24727;51.974;20.868;2024-01-06T04:22:55;-0.60;1.00
38938;DHT22;24727;51.974;20.868;2024-01-06T04:25:21;-0.40;1.00
38938;DHT22;24727;51.974;20.868;2024-01-06T04:27:47;-0.50;1.00
38938;DHT22;24727;51.974;20.868;2024-01-06T04:30:14;-0.40;1.00
38938;DHT22;24727;51.974;20.868;2024-01-06T04:32:41;-0.40;1.00
38938;DHT22;24727;51.974;20.868;2024-01-06T04:35:07;-0.40;1.00
38938;DHT22;24727;51.974;20.868;2024-01-06T04:37:33;-0.40;1.00
38938;DHT22;24727;51.974;20.868;2024-01-06T04:39:59;-0.40;1.00
38938;DHT22;24727;51.974;20.868;2024-01-06T04:42:25;-0.50;1.00
38938;DHT22;24727;51.974;20.868;2024-01-06T04:44:51;-0.40;1.00
38938;DHT22;24727;51.974;20.868;2024-01-06T04:47:17;-0.50;1.00
38938;DHT22;24727;51.974;20.868;2024-01-06T04:49:43;-0.50;1.00
38938;DHT22;24727;51.974;20.868;2024-01-06T04:52:10;-0.40;1.00
38938;DHT22;24727;51.974;20.868;2024-01-06T04:54:36;-0.30;1.00
38938;DHT22;24727;51.974;20.868;2024-01-06T04:57:02;-0.20;1.00
38938;DHT22;24727;51.974;20.868;2024-01-06T04:59:28;-0.20;1.00
38938;DHT22;24727;51.974;20.868;2024-01-06T05:01:54;-0.20;1.00
38938;DHT22;24727;51.974;20.868;2024-01-06T05:04:20;-0.20;1.00
38938;DHT22;24727;51.974;20.868;2024-01-06T05:06:46;-0.40;1.00
38938;DHT22;24727;51.974;20.868;2024-01-06T05:09:11;-0.40;1.00
38938;DHT22;24727;51.974;20.868;2024-01-06T05:11:37;-0.40;1.00
38938;DHT22;24727;51.974;20.868;2024-01-06T05:14:03;-0.30;1.00
38938;DHT22;24727;51.974;20.868;2024-01-06T05:16:29;-0.20;1.00
38938;DHT22;24727;51.974;20.868;2024-01-06T05:18:55;-0.20;1.00
38938;DHT22;24727;51.974;20.868;2024-01-06T05:21:21;-0.20;1.00
38938;DHT22;24727;51.974;20.868;2024-01-06T05:23:47;-0.40;1.00
38938;DHT22;24727;51.974;20.868;2024-01-06T05:26:12;-0.30;1.00
38938;DHT22;24727;51.974;20.868;2024-01-06T05:28:39;-0.30;1.00
38938;DHT22;24727;51.974;20.868;2024-01-06T05:31:06;-0.30;1.00
38938;DHT22;24727;51.974;20.868;2024-01-06T05:33:32;-0.10;1.00
38938;DHT22;24727;51.974;20.868;2024-01-06T05:35:57;0.00;1.00
38938;DHT22;24727;51.974;20.868;2024-01-06T05:38:23;-0.10;1.00
38938;DHT22;24727;51.974;20.868;2024-01-06T05:40:49;-0.10;1.00
38938;DHT22;24727;51.974;20.868;2024-01-06T05:43:15;-0.20;1.00
38938;DHT22;24727;51.974;20.868;2024-01-06T05:45:41;-0.10;1.00
38938;DHT22;24727;51.974;20.868;2024-01-06T05:48:11;-0.10;1.00
38938;DHT22;24727;51.974;20.868;2024-01-06T05:50:40;0.00;1.00
38938;DHT22;24727;51.974;20.868;2024-01-06T05:53:06;-0.20;1.00
38938;DHT22;24727;51.974;20.868;2024-01-06T05:55:33;-0.10;1.00
38938;DHT22;24727;51.974;20.868;2024-01-06T05:57:59;-0.30;1.00
38938;DHT22;24727;51.974;20.868;2024-01-06T06:00:26;-0.40;1.00
38938;DHT22;24727;51.974;20.868;2024-01-06T06:02:52;-0.40;1.00
38938;DHT22;24727;51.974;20.868;2024-01-06T06:05:18;-0.40;1.00
38938;DHT22;24727;51.974;20.868;2024-01-06T06:07:44;-0.50;1.00
38938;DHT22;24727;51.974;20.868;2024-01-06T06:10:10;-0.50;1.00
38938;DHT22;24727;51.974;20.868;2024-01-06T06:12:37;-0.40;1.00
38938;DHT22;24727;51.974;20.868;2024-01-06T06:15:04;-0.20;1.00
38938;DHT22;24727;51.974;20.868;2024-01-06T06:17:31;-0.30;1.00
38938;DHT22;24727;51.974;20.868;2024-01-06T06:19:57;-0.40;1.00
38938;DHT22;24727;51.974;20.868;2024-01-06T06:22:24;-0.40;1.00
38938;DHT22;24727;51.974;20.868;2024-01-06T06:24:52;-0.40;1.00
38938;DHT22;24727;51.974;20.868;2024-01-06T06:27:18;-0.30;1.00
38938;DHT22;24727;51.974;20.868;2024-01-06T06:29:43;-0.20;1.00
38938;DHT22;24727;51.974;20.868;2024-01-06T06:32:09;-0.40;1.00
38938;DHT22;24727;51.974;20.868;2024-01-06T06:34:35;-0.50;1.00
38938;DHT22;24727;51.974;20.868;2024-01-06T06:37:01;-0.50;1.00
38938;DHT22;24727;51.974;20.868;2024-01-06T06:39:26;-0.60;1.00
38938;DHT22;24727;51.974;20.868;2024-01-06T06:41:52;-0.60;1.00
38938;DHT22;24727;51.974;20.868;2024-01-06T06:44:18;-0.40;1.00
38938;DHT22;24727;51.974;20.868;2024-01-06T06:46:44;-0.40;1.00
38938;DHT22;24727;51.974;20.868;2024-01-06T06:49:10;-0.50;1.00
38938;DHT22;24727;51.974;20.868;2024-01-06T06:51:36;-0.50;1.00
38938;DHT22;24727;51.974;20.868;2024-01-06T06:54:02;-0.40;1.00
38938;DHT22;24727;51.974;20.868;2024-01-06T06:56:27;-0.20;1.00
38938;DHT22;24727;51.974;20.868;2024-01-06T06:58:53;-0.10;1.00
38938;DHT22;24727;51.974;20.868;2024-01-06T07:01:20;-0.10;1.00
38938;DHT22;24727;51.974;20.868;2024-01-06T07:03:45;-0.10;1.00
38938;DHT22;24727;51.974;20.868;2024-01-06T07:06:12;-0.10;1.00
38938;DHT22;24727;51.974;20.868;2024-01-06T07:08:39;-0.10;1.00
38938;DHT22;24727;51.974;20.868;2024-01-06T07:11:04;-0.10;1.00
38938;DHT22;24727;51.974;20.868;2024-01-06T07:13:30;0.20;1.00
38938;DHT22;24727;51.974;20.868;2024-01-06T07:15:56;0.20;1.00
38938;DHT22;24727;51.974;20.868;2024-01-06T07:18:22;0.00;1.00
38938;DHT22;24727;51.974;20.868;2024-01-06T07:20:49;-0.20;1.00
38938;DHT22;24727;51.974;20.868;2024-01-06T07:23:15;-0.20;1.00
38938;DHT22;24727;51.974;20.868;2024-01-06T07:25:41;-0.10;1.00
38938;DHT22;24727;51.974;20.868;2024-01-06T07:28:06;-0.10;1.00
38938;DHT22;24727;51.974;20.868;2024-01-06T07:30:34;0.10;1.00
38938;DHT22;24727;51.974;20.868;2024-01-06T07:32:59;0.00;1.00
38938;DHT22;24727;51.974;20.868;2024-01-06T07:35:25;0.00;1.00
38938;DHT22;24727;51.974;20.868;2024-01-06T07:37:51;0.10;1.00
38938;DHT22;24727;51.974;20.868;2024-01-06T07:40:18;0.20;1.00
38938;DHT22;24727;51.974;20.868;2024-01-06T07:42:44;0.40;1.00
38938;DHT22;24727;51.974;20.868;2024-01-06T07:45:10;0.40;1.00
38938;DHT22;24727;51.974;20.868;2024-01-06T07:47:36;0.30;1.00
38938;DHT22;24727;51.974;20.868;2024-01-06T07:50:04;0.30;1.00
38938;DHT22;24727;51.974;20.868;2024-01-06T07:52:30;0.20;1.00
38938;DHT22;24727;51.974;20.868;2024-01-06T07:54:56;0.30;1.00
38938;DHT22;24727;51.974;20.868;2024-01-06T07:57:22;-0.10;1.00
38938;DHT22;24727;51.974;20.868;2024-01-06T07:59:48;-0.10;1.00
38938;DHT22;24727;51.974;20.868;2024-01-06T08:02:14;0.10;1.00
38938;DHT22;24727;51.974;20.868;2024-01-06T08:04:40;0.10;1.00
38938;DHT22;24727;51.974;20.868;2024-01-06T08:07:05;0.30;1.00
38938;DHT22;24727;51.974;20.868;2024-01-06T08:09:31;0.40;1.00
38938;DHT22;24727;51.974;20.868;2024-01-06T08:11:57;0.30;1.00
38938;DHT22;24727;51.974;20.868;2024-01-06T08:14:23;0.40;1.00
38938;DHT22;24727;51.974;20.868;2024-01-06T08:16:48;0.40;1.00
38938;DHT22;24727;51.974;20.868;2024-01-06T08:19:14;0.20;1.00
38938;DHT22;24727;51.974;20.868;2024-01-06T08:21:40;0.20;1.00
38938;DHT22;24727;51.974;20.868;2024-01-06T08:24:06;0.10;1.00
38938;DHT22;24727;51.974;20.868;2024-01-06T08:26:33;0.00;1.00
38938;DHT22;24727;51.974;20.868;2024-01-06T08:28:59;0.00;1.00
38938;DHT22;24727;51.974;20.868;2024-01-06T08:31:24;0.10;1.00
38938;DHT22;24727;51.974;20.868;2024-01-06T08:33:50;0.20;1.00
38938;DHT22;24727;51.974;20.868;2024-01-06T08:36:16;0.50;1.00
38938;DHT22;24727;51.974;20.868;2024-01-06T08:38:42;0.70;1.00
38938;DHT22;24727;51.974;20.868;2024-01-06T08:41:08;0.40;1.00
38938;DHT22;24727;51.974;20.868;2024-01-06T08:43:34;0.40;1.00
38938;DHT22;24727;51.974;20.868;2024-01-06T08:46:00;0.50;1.00
38938;DHT22;24727;51.974;20.868;2024-01-06T08:48:26;0.40;1.00
38938;DHT22;24727;51.974;20.868;2024-01-06T08:50:51;0.40;1.00
38938;DHT22;24727;51.974;20.868;2024-01-06T08:53:17;0.30;1.00
38938;DHT22;24727;51.974;20.868;2024-01-06T08:55:43;0.30;1.00
38938;DHT22;24727;51.974;20.868;2024-01-06T08:58:09;0.50;1.00
38938;DHT22;24727;51.974;20.868;2024-01-06T09:00:35;0.30;1.00
38938;DHT22;24727;51.974;20.868;2024-01-06T09:03:01;0.40;1.00
38938;DHT22;24727;51.974;20.868;2024-01-06T09:05:26;0.30;1.00
38938;DHT22;24727;51.974;20.868;2024-01-06T09:07:52;0.00;1.00
38938;DHT22;24727;51.974;20.868;2024-01-06T09:10:18;0.00;1.00
38938;DHT22;24727;51.974;20.868;2024-01-06T09:12:45;0.20;1.00
38938;DHT22;24727;51.974;20.868;2024-01-06T09:15:11;0.20;1.00
38938;DHT22;24727;51.974;20.868;2024-01-06T09:17:36;0.20;1.00
38938;DHT22;24727;51.974;20.868;2024-01-06T09:20:03;0.20;1.00
38938;DHT22;24727;51.974;20.868;2024-01-06T09:22:29;0.30;1.00
38938;DHT22;24727;51.974;20.868;2024-01-06T09:24:54;0.30;1.00
38938;DHT22;24727;51.974;20.868;2024-01-06T09:27:20;0.10;1.00
38938;DHT22;24727;51.974;20.868;2024-01-06T09:29:46;0.20;1.00
38938;DHT22;24727;51.974;20.868;2024-01-06T09:32:13;0.30;1.00
38938;DHT22;24727;51.974;20.868;2024-01-06T09:34:39;0.20;1.00
38938;DHT22;24727;51.974;20.868;2024-01-06T09:37:05;0.20;1.00
38938;DHT22;24727;51.974;20.868;2024-01-06T09:39:31;0.20;1.00
38938;DHT22;24727;51.974;20.868;2024-01-06T09:41:57;0.30;1.00
38938;DHT22;24727;51.974;20.868;2024-01-06T09:44:24;0.40;1.00
38938;DHT22;24727;51.974;20.868;2024-01-06T09:46:50;0.50;1.00
38938;DHT22;24727;51.974;20.868;2024-01-06T09:49:22;0.60;1.00
38938;DHT22;24727;51.974;20.868;2024-01-06T09:51:49;0.40;1.00
38938;DHT22;24727;51.974;20.868;2024-01-06T09:54:22;0.60;1.00
38938;DHT22;24727;51.974;20.868;2024-01-06T09:56:49;0.50;1.00
38938;DHT22;24727;51.974;20.868;2024-01-06T09:59:15;0.50;1.00
38938;DHT22;24727;51.974;20.868;2024-01-06T10:01:41;0.70;1.00
38938;DHT22;24727;51.974;20.868;2024-01-06T10:04:08;0.80;1.00
38938;DHT22;24727;51.974;20.868;2024-01-06T10:06:34;0.70;1.00
38938;DHT22;24727;51.974;20.868;2024-01-06T10:09:01;0.50;1.00
38938;DHT22;24727;51.974;20.868;2024-01-06T10:11:27;0.50;1.00
38938;DHT22;24727;51.974;20.868;2024-01-06T10:13:53;0.50;1.00
38938;DHT22;24727;51.974;20.868;2024-01-06T10:16:21;0.60;1.00
38938;DHT22;24727;51.974;20.868;2024-01-06T10:18:48;0.60;1.00
38938;DHT22;24727;51.974;20.868;2024-01-06T10:21:14;0.30;1.00
38938;DHT22;24727;51.974;20.868;2024-01-06T10:23:43;0.00;1.00
38938;DHT22;24727;51.974;20.868;2024-01-06T10:26:14;0.10;1.00
38938;DHT22;24727;51.974;20.868;2024-01-06T10:28:40;0.40;1.00
38938;DHT22;24727;51.974;20.868;2024-01-06T10:31:08;0.30;1.00
38938;DHT22;24727;51.974;20.868;2024-01-06T10:33:34;0.30;1.00
38938;DHT22;24727;51.974;20.868;2024-01-06T10:36:00;0.20;1.00
38938;DHT22;24727;51.974;20.868;2024-01-06T10:38:26;0.20;1.00
38938;DHT22;24727;51.974;20.868;2024-01-06T10:41:00;0.50;1.00
38938;DHT22;24727;51.974;20.868;2024-01-06T10:43:28;0.70;1.00
38938;DHT22;24727;51.974;20.868;2024-01-06T10:46:03;0.60;1.00
38938;DHT22;24727;51.974;20.868;2024-01-06T10:48:34;0.40;1.00
38938;DHT22;24727;51.974;20.868;2024-01-06T10:51:01;0.50;1.00
38938;DHT22;24727;51.974;20.868;2024-01-06T10:53:34;0.30;1.00
38938;DHT22;24727;51.974;20.868;2024-01-06T10:56:08;0.30;1.00
38938;DHT22;24727;51.974;20.868;2024-01-06T10:58:36;0.40;1.00
38938;DHT22;24727;51.974;20.868;2024-01-06T11:01:12;0.40;1.00
38938;DHT22;24727;51.974;20.868;2024-01-06T11:03:39;0.20;1.00
38938;DHT22;24727;51.974;20.868;2024-01-06T11:06:09;0.40;1.00
38938;DHT22;24727;51.974;20.868;2024-01-06T11:08:46;0.30;1.00
38938;DHT22;24727;51.974;20.868;2024-01-06T11:11:18;0.70;1.00
38938;DHT22;24727;51.974;20.868;2024-01-06T11:13:45;0.80;1.00
38938;DHT22;24727;51.974;20.868;2024-01-06T11:16:36;0.60;1.00
38938;DHT22;24727;51.974;20.868;2024-01-06T11:19:02;0.70;1.00
38938;DHT22;24727;51.974;20.868;2024-01-06T11:21:33;1.10;1.00
38938;DHT22;24727;51.974;20.868;2024-01-06T11:24:18;0.80;1.00
38938;DHT22;24727;51.974;20.868;2024-01-06T11:26:55;1.00;1.00
38938;DHT22;24727;51.974;20.868;2024-01-06T11:29:22;1.00;1.00
38938;DHT22;24727;51.974;20.868;2024-01-06T11:32:16;1.30;1.00
38938;DHT22;24727;51.974;20.868;2024-01-06T11:34:42;1.30;1.00
38938;DHT22;24727;51.974;20.868;2024-01-06T11:37:08;1.20;1.00
38938;DHT22;24727;51.974;20.868;2024-01-06T11:39:40;1.20;1.00
38938;DHT22;24727;51.974;20.868;2024-01-06T11:42:10;1.50;1.00
38938;DHT22;24727;51.974;20.868;2024-01-06T11:44:40;1.50;1.00
38938;DHT22;24727;51.974;20.868;2024-01-06T11:47:11;1.40;1.00
38938;DHT22;24727;51.974;20.868;2024-01-06T11:49:37;1.50;1.00
38938;DHT22;24727;51.974;20.868;2024-01-06T11:52:03;1.30;1.00
38938;DHT22;24727;51.974;20.868;2024-01-06T11:54:30;1.30;1.00
38938;DHT22;24727;51.974;20.868;2024-01-06T11:56:57;1.10;1.00
38938;DHT22;24727;51.974;20.868;2024-01-06T11:59:23;1.30;1.00
38938;DHT22;24727;51.974;20.868;2024-01-06T12:01:49;1.30;1.00
38938;DHT22;24727;51.974;20.868;2024-01-06T12:04:17;1.20;1.00
38938;DHT22;24727;51.974;20.868;2024-01-06T12:06:43;1.30;1.00
38938;DHT22;24727;51.974;20.868;2024-01-06T12:09:11;1.40;1.00
38938;DHT22;24727;51.974;20.868;2024-01-06T12:11:41;1.10;1.00
38938;DHT22;24727;51.974;20.868;2024-01-06T12:14:07;1.20;1.00
38938;DHT22;24727;51.974;20.868;2024-01-06T12:16:33;1.10;1.00
38938;DHT22;24727;51.974;20.868;2024-01-06T12:18:59;1.10;1.00
38938;DHT22;24727;51.974;20.868;2024-01-06T12:21:29;1.20;1.00
38938;DHT22;24727;51.974;20.868;2024-01-06T12:24:17;0.90;1.00
38938;DHT22;24727;51.974;20.868;2024-01-06T12:26:47;1.30;1.00
38938;DHT22;24727;51.974;20.868;2024-01-06T12:29:13;1.20;1.00
38938;DHT22;24727;51.974;20.868;2024-01-06T12:31:40;0.90;1.00
38938;DHT22;24727;51.974;20.868;2024-01-06T12:34:06;0.60;1.00
38938;DHT22;24727;51.974;20.868;2024-01-06T12:36:40;0.40;1.00
38938;DHT22;24727;51.974;20.868;2024-01-06T12:39:11;0.40;1.00
38938;DHT22;24727;51.974;20.868;2024-01-06T12:41:42;0.40;1.00
38938;DHT22;24727;51.974;20.868;2024-01-06T12:44:08;0.40;1.00
38938;DHT22;24727;51.974;20.868;2024-01-06T12:46:35;0.40;1.00
38938;DHT22;24727;51.974;20.868;2024-01-06T12:49:01;0.40;1.00
38938;DHT22;24727;51.974;20.868;2024-01-06T12:51:28;0.50;1.00
38938;DHT22;24727;51.974;20.868;2024-01-06T12:53:54;0.60;1.00
38938;DHT22;24727;51.974;20.868;2024-01-06T12:56:20;1.00;1.00
38938;DHT22;24727;51.974;20.868;2024-01-06T12:58:46;1.10;1.00
38938;DHT22;24727;51.974;20.868;2024-01-06T13:01:12;1.30;1.00
38938;DHT22;24727;51.974;20.868;2024-01-06T13:03:38;1.30;1.00
38938;DHT22;24727;51.974;20.868;2024-01-06T13:06:04;1.10;1.00
38938;DHT22;24727;51.974;20.868;2024-01-06T13:08:30;1.00;1.00
38938;DHT22;24727;51.974;20.868;2024-01-06T13:10:56;1.10;1.00
38938;DHT22;24727;51.974;20.868;2024-01-06T13:13:22;1.00;1.00
38938;DHT22;24727;51.974;20.868;2024-01-06T13:15:48;0.80;1.00
38938;DHT22;24727;51.974;20.868;2024-01-06T13:18:14;0.80;1.00
38938;DHT22;24727;51.974;20.868;2024-01-06T13:20:42;0.80;1.00
38938;DHT22;24727;51.974;20.868;2024-01-06T13:23:09;0.50;1.00
38938;DHT22;24727;51.974;20.868;2024-01-06T13:25:37;0.50;1.00
38938;DHT22;24727;51.974;20.868;2024-01-06T13:28:05;0.50;1.00
38938;DHT22;24727;51.974;20.868;2024-01-06T13:30:31;0.20;1.00
38938;DHT22;24727;51.974;20.868;2024-01-06T13:32:58;0.30;1.00
38938;DHT22;24727;51.974;20.868;2024-01-06T13:35:24;0.50;1.00
38938;DHT22;24727;51.974;20.868;2024-01-06T13:37:51;0.40;1.00
38938;DHT22;24727;51.974;20.868;2024-01-06T13:40:18;0.60;1.00
38938;DHT22;24727;51.974;20.868;2024-01-06T13:42:47;0.70;1.00
38938;DHT22;24727;51.974;20.868;2024-01-06T13:45:13;0.80;1.00
38938;DHT22;24727;51.974;20.868;2024-01-06T13:47:39;0.40;1.00
38938;DHT22;24727;51.974;20.868;2024-01-06T13:50:12;0.40;1.00
38938;DHT22;24727;51.974;20.868;2024-01-06T13:52:38;0.40;1.00
38938;DHT22;24727;51.974;20.868;2024-01-06T13:55:05;0.60;1.00
38938;DHT22;24727;51.974;20.868;2024-01-06T13:57:31;0.40;1.00
38938;DHT22;24727;51.974;20.868;2024-01-06T13:59:57;0.60;1.00
38938;DHT22;24727;51.974;20.868;2024-01-06T14:02:24;0.30;1.00
38938;DHT22;24727;51.974;20.868;2024-01-06T14:04:50;0.20;1.00
38938;DHT22;24727;51.974;20.868;2024-01-06T14:07:17;0.30;1.00
38938;DHT22;24727;51.974;20.868;2024-01-06T14:09:45;0.40;1.00
38938;DHT22;24727;51.974;20.868;2024-01-06T14:12:11;0.40;1.00
38938;DHT22;24727;51.974;20.868;2024-01-06T14:14:37;0.40;1.00
38938;DHT22;24727;51.974;20.868;2024-01-06T14:17:03;0.10;1.00
38938;DHT22;24727;51.974;20.868;2024-01-06T14:19:29;0.20;1.00
38938;DHT22;24727;51.974;20.868;2024-01-06T14:21:55;0.50;1.00
38938;DHT22;24727;51.974;20.868;2024-01-06T14:24:21;0.60;1.00
38938;DHT22;24727;51.974;20.868;2024-01-06T14:26:55;0.50;1.00
38938;DHT22;24727;51.974;20.868;2024-01-06T14:29:21;0.20;1.00
38938;DHT22;24727;51.974;20.868;2024-01-06T14:31:47;0.00;1.00
38938;DHT22;24727;51.974;20.868;2024-01-06T14:34:14;0.00;1.00
38938;DHT22;24727;51.974;20.868;2024-01-06T14:36:40;-0.20;1.00
38938;DHT22;24727;51.974;20.868;2024-01-06T14:39:14;0.20;1.00
38938;DHT22;24727;51.974;20.868;2024-01-06T14:41:40;0.60;1.00
38938;DHT22;24727;51.974;20.868;2024-01-06T14:44:07;0.60;1.00
38938;DHT22;24727;51.974;20.868;2024-01-06T14:46:33;0.50;1.00
38938;DHT22;24727;51.974;20.868;2024-01-06T14:49:01;0.60;1.00
38938;DHT22;24727;51.974;20.868;2024-01-06T14:51:28;0.50;1.00
38938;DHT22;24727;51.974;20.868;2024-01-06T14:53:54;0.50;1.00
38938;DHT22;24727;51.974;20.868;2024-01-06T14:56:23;0.60;1.00
38938;DHT22;24727;51.974;20.868;2024-01-06T14:58:49;0.30;1.00
38938;DHT22;24727;51.974;20.868;2024-01-06T15:01:15;0.40;1.00
38938;DHT22;24727;51.974;20.868;2024-01-06T15:03:41;0.50;1.00
38938;DHT22;24727;51.974;20.868;2024-01-06T15:06:10;0.80;1.00
38938;DHT22;24727;51.974;20.868;2024-01-06T15:08:35;0.90;1.00
38938;DHT22;24727;51.974;20.868;2024-01-06T15:11:01;0.70;1.00
38938;DHT22;24727;51.974;20.868;2024-01-06T15:13:28;0.80;1.00
38938;DHT22;24727;51.974;20.868;2024-01-06T15:15:54;0.60;1.00
38938;DHT22;24727;51.974;20.868;2024-01-06T15:18:20;0.80;1.00
38938;DHT22;24727;51.974;20.868;2024-01-06T15:20:47;1.00;1.00
38938;DHT22;24727;51.974;20.868;2024-01-06T15:23:12;1.20;1.00
38938;DHT22;24727;51.974;20.868;2024-01-06T15:25:38;1.10;1.00
38938;DHT22;24727;51.974;20.868;2024-01-06T15:28:04;1.40;1.00
38938;DHT22;24727;51.974;20.868;2024-01-06T15:30:30;1.40;1.00
38938;DHT22;24727;51.974;20.868;2024-01-06T15:32:56;1.10;1.00
38938;DHT22;24727;51.974;20.868;2024-01-06T15:35:22;0.70;1.00
38938;DHT22;24727;51.974;20.868;2024-01-06T15:37:48;0.80;1.00